Time;durP1;ratioP1;P1;durP2;ratioP2;P2;SDS_P1;SDS_P2;PMS_P1;PMS_P2;Temp;Humidity;BMP_temperature;BMP_pressure;BME280_temperature;BME280_humidity;BME280_pressure;Samples;Min_cycle;Max_cycle;Signal;HPM_P1;HPM_P2
2022/01/05 00:01:28;;;;;;;8.77;3.83;;;5.70;99.90;;;;;;4933832;29;20039;-90
2022/01/05 00:03:54;;;;;;;11.03;3.73;;;5.70;99.90;;;;;;4933803;29;20039;-89
2022/01/05 00:06:19;;;;;;;11.70;3.20;;;5.70;99.90;;;;;;4933827;29;20031;-89
2022/01/05 00:08:45;;;;;;;10.07;3.00;;;5.80;99.90;;;;;;4933980;29;20513;-89
2022/01/05 00:11:11;;;;;;;9.17;2.57;;;5.80;99.90;;;;;;4933562;29;20032;-90
2022/01/05 00:13:37;;;;;;;11.63;2.87;;;5.90;99.90;;;;;;4934082;29;20044;-89
2022/01/05 00:16:03;;;;;;;15.83;3.87;;;5.90;99.90;;;;;;4933540;29;20063;-89
2022/01/05 00:18:29;;;;;;;13.20;2.73;;;5.90;99.90;;;;;;4933733;29;20444;-90
2022/01/05 00:20:56;;;;;;;10.70;3.17;;;5.90;99.90;;;;;;4933613;29;20078;-90
2022/01/05 00:23:22;;;;;;;12.80;3.70;;;6.00;99.90;;;;;;4933514;29;20044;-90
2022/01/05 00:25:47;;;;;;;15.43;3.13;;;6.00;99.90;;;;;;4933437;29;20031;-89
2022/01/05 00:28:13;;;;;;;10.70;2.50;;;6.00;99.90;;;;;;4933456;29;20035;-89
2022/01/05 00:30:39;;;;;;;7.60;2.43;;;6.00;99.90;;;;;;4933485;29;20028;-89
2022/01/05 00:33:06;;;;;;;10.90;2.53;;;6.00;99.90;;;;;;4933497;29;20126;-90
2022/01/05 00:35:32;;;;;;;8.67;2.20;;;5.90;99.90;;;;;;4933379;29;20024;-90
2022/01/05 00:37:57;;;;;;;10.70;2.00;;;5.90;99.90;;;;;;4933486;29;20376;-89
2022/01/05 00:40:23;;;;;;;7.93;1.90;;;6.00;99.90;;;;;;4935819;29;20083;-89
2022/01/05 00:42:49;;;;;;;8.83;2.03;;;6.00;99.90;;;;;;4937125;29;20032;-89
2022/01/05 00:45:15;;;;;;;9.13;1.63;;;6.00;99.90;;;;;;4937514;29;20028;-89
2022/01/05 00:47:41;;;;;;;8.47;1.60;;;6.00;99.90;;;;;;4936972;29;20038;-89
2022/01/05 00:50:07;;;;;;;8.53;1.70;;;5.90;99.90;;;;;;4937406;29;20031;-90
2022/01/05 00:52:32;;;;;;;14.47;1.97;;;6.00;99.90;;;;;;4937004;29;20032;-89
2022/01/05 00:54:58;;;;;;;6.27;1.40;;;6.00;99.90;;;;;;4936982;29;20028;-89
2022/01/05 00:57:24;;;;;;;6.10;1.30;;;5.90;99.90;;;;;;4936875;29;20032;-90
2022/01/05 00:59:50;;;;;;;7.27;2.00;;;5.90;99.90;;;;;;4936903;29;20023;-90
2022/01/05 01:02:15;;;;;;;7.70;1.67;;;5.90;99.90;;;;;;4936612;29;20411;-90
2022/01/05 01:04:41;;;;;;;6.80;1.10;;;5.90;99.90;;;;;;4936811;29;20079;-89
2022/01/05 01:07:07;;;;;;;7.57;1.20;;;5.80;99.90;;;;;;4936689;29;20039;-89
2022/01/05 01:09:33;;;;;;;8.27;1.50;;;5.80;99.90;;;;;;4936760;29;20422;-89
2022/01/05 01:11:59;;;;;;;6.67;1.30;;;5.80;99.90;;;;;;4936471;29;20039;-89
2022/01/05 01:14:24;;;;;;;6.87;1.47;;;5.70;99.90;;;;;;4936605;29;20031;-89
2022/01/05 01:16:50;;;;;;;7.80;1.70;;;5.70;99.90;;;;;;4936494;29;20036;-90
2022/01/05 01:19:16;;;;;;;6.50;1.37;;;5.70;99.90;;;;;;4936472;29;20082;-89
2022/01/05 01:21:42;;;;;;;8.90;1.30;;;5.70;99.90;;;;;;4936779;29;20036;-89
2022/01/05 01:24:08;;;;;;;5.77;1.40;;;5.60;99.90;;;;;;4936348;29;20094;-89
2022/01/05 01:26:33;;;;;;;6.53;1.43;;;5.60;99.90;;;;;;4936213;29;20059;-89
2022/01/05 01:29:00;;;;;;;5.23;1.30;;;5.60;99.90;;;;;;4936275;29;20031;-90
2022/01/05 01:31:26;;;;;;;7.80;1.47;;;5.70;99.90;;;;;;4936337;29;20130;-89
2022/01/05 01:33:52;;;;;;;6.67;1.37;;;5.60;99.90;;;;;;4936481;29;20518;-89
2022/01/05 01:36:18;;;;;;;7.47;1.60;;;5.60;99.90;;;;;;4936244;29;20023;-89
2022/01/05 01:38:45;;;;;;;9.33;1.97;;;5.70;99.90;;;;;;4936248;29;20512;-89
2022/01/05 01:41:11;;;;;;;5.43;1.43;;;5.70;99.90;;;;;;4936042;29;20123;-90
2022/01/05 01:43:38;;;;;;;8.00;2.13;;;5.70;99.90;;;;;;4936397;29;20391;-89
2022/01/05 01:46:06;;;;;;;9.97;2.57;;;5.60;99.90;;;;;;4936084;29;20126;-89
2022/01/05 01:48:32;;;;;;;9.00;2.40;;;5.70;99.90;;;;;;4936134;29;20035;-90
2022/01/05 01:50:58;;;;;;;8.63;2.20;;;5.60;99.90;;;;;;4934706;29;20047;-89
2022/01/05 01:53:24;;;;;;;9.30;2.13;;;5.70;99.90;;;;;;4935941;29;20550;-89
2022/01/05 01:55:50;;;;;;;6.47;2.30;;;5.70;99.90;;;;;;4935851;29;20028;-89
2022/01/05 01:58:22;;;;;;;7.03;2.20;;;5.60;99.90;;;;;;4935786;29;20091;-89
2022/01/05 02:00:48;;;;;;;8.53;2.70;;;5.60;99.90;;;;;;4936138;29;20486;-89
2022/01/05 02:03:14;;;;;;;8.20;2.40;;;5.60;99.90;;;;;;4935717;29;20040;-90
2022/01/05 02:05:41;;;;;;;9.63;2.10;;;5.50;99.90;;;;;;4935704;29;20187;-89
2022/01/05 02:08:06;;;;;;;9.70;2.67;;;5.50;99.90;;;;;;4935782;29;20030;-89
2022/01/05 02:10:32;;;;;;;10.17;3.20;;;5.50;99.90;;;;;;4935850;29;20035;-89
2022/01/05 02:12:59;;;;;;;14.40;3.07;;;5.50;99.90;;;;;;4935662;29;20499;-89
2022/01/05 02:15:25;;;;;;;9.73;2.60;;;5.60;99.90;;;;;;4935674;29;20020;-88
2022/01/05 02:20:29;;;;;;;12.13;2.10;;;5.50;99.90;;;;;;4935791;29;20032;-89
2022/01/05 02:22:56;;;;;;;12.20;2.60;;;5.50;99.90;;;;;;4935449;29;20031;-89
2022/01/05 02:25:23;;;;;;;9.93;2.60;;;5.50;99.90;;;;;;4935308;29;20174;-89
2022/01/05 02:27:51;;;;;;;15.00;3.97;;;5.30;99.90;;;;;;4935145;29;20036;-89
2022/01/05 02:30:29;;;;;;;14.30;3.67;;;5.50;99.90;;;;;;4935415;29;20034;-89
2022/01/05 02:32:55;;;;;;;9.20;2.43;;;5.40;99.90;;;;;;4935538;29;20043;-89
2022/01/05 02:35:21;;;;;;;8.67;2.57;;;5.30;99.90;;;;;;4935266;29;20268;-88
2022/01/05 02:37:50;;;;;;;14.43;2.50;;;5.40;99.90;;;;;;4935176;29;20396;-89
2022/01/05 02:40:17;;;;;;;10.37;2.60;;;5.30;99.90;;;;;;4934955;29;20035;-89
2022/01/05 02:42:44;;;;;;;10.00;2.70;;;5.20;99.90;;;;;;4919367;29;20549;-89
2022/01/05 02:45:11;;;;;;;9.80;2.30;;;5.30;99.90;;;;;;4935051;29;20032;-89
2022/01/05 02:47:37;;;;;;;8.43;2.30;;;5.20;99.90;;;;;;4934932;29;20433;-89
2022/01/05 02:50:05;;;;;;;11.40;2.60;;;5.20;99.90;;;;;;4934972;29;20066;-89
2022/01/05 02:52:31;;;;;;;8.07;2.47;;;5.20;99.90;;;;;;4934777;29;20497;-90
2022/01/05 02:54:57;;;;;;;12.07;2.40;;;5.20;99.90;;;;;;4934779;29;20110;-89
2022/01/05 02:57:23;;;;;;;13.17;2.50;;;5.20;99.90;;;;;;4934709;29;20038;-89
2022/01/05 02:59:49;;;;;;;9.80;2.63;;;5.20;99.90;;;;;;4934599;29;20027;-89
2022/01/05 03:02:15;;;;;;;11.10;2.37;;;5.20;99.90;;;;;;4934457;29;20036;-89
2022/01/05 03:04:41;;;;;;;11.70;2.47;;;5.10;99.90;;;;;;4934608;29;20032;-89
2022/01/05 03:07:08;;;;;;;10.17;2.30;;;5.10;99.90;;;;;;4934527;29;20054;-89
2022/01/05 03:09:34;;;;;;;10.83;2.63;;;5.10;99.90;;;;;;4934507;29;20508;-89
2022/01/05 03:11:59;;;;;;;14.37;2.93;;;5.20;99.90;;;;;;4934435;29;20039;-89
2022/01/05 03:14:25;;;;;;;8.60;2.07;;;5.10;99.90;;;;;;4934474;29;20036;-89
2022/01/05 03:16:51;;;;;;;12.23;2.80;;;5.10;99.90;;;;;;4934262;29;20032;-89
2022/01/05 03:19:16;;;;;;;8.80;1.90;;;5.00;99.90;;;;;;4934281;29;20067;-89
2022/01/05 03:21:42;;;;;;;9.77;2.00;;;5.10;99.90;;;;;;4934369;29;20119;-89
2022/01/05 03:24:08;;;;;;;13.67;2.20;;;5.10;99.90;;;;;;4934363;29;20479;-90
2022/01/05 03:26:34;;;;;;;10.97;2.20;;;5.00;99.90;;;;;;4934101;29;20059;-89
2022/01/05 03:28:59;;;;;;;10.93;2.20;;;5.00;99.90;;;;;;4902719;29;20488;-90
2022/01/05 03:31:25;;;;;;;9.80;2.30;;;5.00;99.90;;;;;;4934107;29;20126;-90
2022/01/05 03:33:51;;;;;;;10.67;2.40;;;5.00;99.90;;;;;;4934193;29;20123;-89
2022/01/05 03:36:17;;;;;;;9.40;1.90;;;4.90;99.90;;;;;;4933993;29;20403;-89
2022/01/05 03:38:42;;;;;;;15.37;2.23;;;4.90;99.90;;;;;;4934111;29;20042;-89
2022/01/05 03:41:08;;;;;;;11.53;2.10;;;4.90;99.90;;;;;;4934098;29;20028;-89
2022/01/05 03:43:34;;;;;;;9.13;2.73;;;4.90;99.90;;;;;;4933945;29;20055;-90
2022/01/05 03:46:00;;;;;;;11.00;2.20;;;4.80;99.90;;;;;;4933914;29;20034;-89
2022/01/05 03:48:26;;;;;;;8.17;1.73;;;4.80;99.90;;;;;;4933986;29;20035;-89
2022/01/05 03:50:51;;;;;;;9.27;2.00;;;4.80;99.90;;;;;;4933913;29;20055;-89
2022/01/05 03:53:18;;;;;;;10.43;2.20;;;4.80;99.90;;;;;;4933875;29;20046;-89
2022/01/05 03:55:45;;;;;;;11.27;2.10;;;4.80;99.90;;;;;;4933936;29;20032;-89
2022/01/05 03:58:11;;;;;;;17.30;2.40;;;4.70;99.90;;;;;;4933975;29;20107;-89
2022/01/05 04:00:43;;;;;;;9.07;2.10;;;4.80;99.90;;;;;;4933759;29;20063;-89
2022/01/05 04:03:09;;;;;;;11.00;2.53;;;4.80;99.90;;;;;;4933878;29;20086;-89
2022/01/05 04:05:35;;;;;;;9.73;1.80;;;4.80;99.90;;;;;;4933802;29;20032;-90
2022/01/05 04:08:02;;;;;;;10.90;1.90;;;4.80;99.90;;;;;;4933781;29;20122;-89
2022/01/05 04:10:27;;;;;;;13.20;3.10;;;4.70;99.90;;;;;;4933607;29;20028;-89
2022/01/05 04:12:53;;;;;;;12.57;4.30;;;4.70;99.90;;;;;;4933850;29;20034;-89
2022/01/05 04:15:19;;;;;;;11.30;2.50;;;4.60;99.90;;;;;;4936172;29;20486;-90
2022/01/05 04:17:45;;;;;;;9.30;2.13;;;4.70;99.90;;;;;;4936986;29;20023;-89
2022/01/05 04:20:12;;;;;;;7.87;1.97;;;4.70;99.90;;;;;;4937393;29;20035;-89
2022/01/05 04:22:39;;;;;;;12.17;1.77;;;4.70;99.90;;;;;;4937422;29;20078;-89
2022/01/05 04:25:05;;;;;;;9.60;2.20;;;4.60;99.90;;;;;;4937523;29;20036;-89
2022/01/05 04:27:31;;;;;;;10.23;2.20;;;4.60;99.90;;;;;;4936741;29;20094;-89
2022/01/05 04:29:57;;;;;;;9.20;1.50;;;4.60;99.90;;;;;;4937192;29;20483;-89
2022/01/05 04:32:23;;;;;;;15.90;2.47;;;4.60;99.90;;;;;;4937409;29;20509;-90
2022/01/05 04:34:48;;;;;;;8.67;1.80;;;4.50;99.90;;;;;;4937082;29;20520;-89
2022/01/05 04:37:14;;;;;;;8.40;2.17;;;4.50;99.90;;;;;;4937145;29;20036;-89
2022/01/05 04:39:40;;;;;;;10.90;2.13;;;4.60;99.90;;;;;;4936706;29;20028;-89
2022/01/05 04:42:06;;;;;;;8.70;1.90;;;4.50;99.90;;;;;;4936976;29;20498;-89
2022/01/05 04:44:32;;;;;;;13.43;1.83;;;4.60;99.90;;;;;;4937151;29;20039;-89
2022/01/05 04:46:58;;;;;;;7.60;2.03;;;4.60;99.90;;;;;;4938193;29;20119;-89
2022/01/05 04:49:24;;;;;;;13.47;2.40;;;4.60;99.90;;;;;;4936463;29;20123;-89
2022/01/05 04:51:49;;;;;;;14.60;2.57;;;4.60;99.90;;;;;;4905146;29;20406;-89
2022/01/05 04:54:15;;;;;;;11.27;2.77;;;4.60;99.90;;;;;;4936995;29;20036;-89
2022/01/05 04:56:41;;;;;;;16.70;3.70;;;4.60;99.90;;;;;;4905605;29;20031;-89
2022/01/05 04:59:06;;;;;;;15.37;4.07;;;4.70;99.90;;;;;;4936572;29;20087;-89
2022/01/05 05:01:32;;;;;;;18.80;5.37;;;4.70;99.90;;;;;;4936558;29;20036;-89
2022/01/05 05:03:58;;;;;;;14.57;5.10;;;4.70;99.90;;;;;;4904994;29;20044;-89
2022/01/05 05:06:24;;;;;;;14.87;4.70;;;4.60;99.90;;;;;;4936454;29;20042;-89
2022/01/05 05:08:50;;;;;;;19.00;4.97;;;4.60;99.90;;;;;;4936321;29;20039;-89
2022/01/05 05:11:16;;;;;;;12.80;4.17;;;4.60;99.90;;;;;;4936327;29;20114;-89
2022/01/05 05:13:41;;;;;;;12.63;3.77;;;4.50;99.90;;;;;;4936571;29;20031;-89
2022/01/05 05:16:07;;;;;;;16.27;3.73;;;4.50;99.90;;;;;;4920640;29;20502;-89
2022/01/05 05:18:33;;;;;;;13.80;4.10;;;4.40;99.90;;;;;;4935957;29;20118;-89
2022/01/05 05:20:59;;;;;;;12.83;3.30;;;4.40;99.90;;;;;;4936228;29;20467;-89
2022/01/05 05:23:25;;;;;;;13.17;3.37;;;4.40;99.90;;;;;;4936498;29;20035;-89
2022/01/05 05:28:41;;;;;;;18.37;3.77;;;4.40;99.90;;;;;;4917306;29;20578;-91
2022/01/05 05:31:07;;;;;;;13.37;3.97;;;4.40;99.90;;;;;;4901640;29;20123;-90
2022/01/05 05:33:33;;;;;;;13.17;4.03;;;4.40;99.90;;;;;;4901749;29;20036;-91
2022/01/05 05:35:59;;;;;;;14.60;4.50;;;4.40;99.90;;;;;;4901588;29;20077;-90
2022/01/05 05:38:25;;;;;;;16.53;5.07;;;4.40;99.90;;;;;;4917607;29;20039;-92
2022/01/05 05:40:51;;;;;;;15.43;4.93;;;4.40;99.90;;;;;;4918118;29;20114;-91
2022/01/05 05:43:16;;;;;;;17.07;4.00;;;4.50;99.90;;;;;;4916998;29;20103;-91
2022/01/05 05:45:42;;;;;;;13.27;4.90;;;4.40;99.90;;;;;;4901305;29;20122;-91
2022/01/05 05:48:08;;;;;;;16.43;4.10;;;4.50;99.90;;;;;;4917200;29;20039;-91
2022/01/05 05:50:34;;;;;;;14.70;3.93;;;4.50;99.90;;;;;;4916784;29;20515;-92
2022/01/05 05:53:00;;;;;;;13.27;3.50;;;4.50;99.90;;;;;;4901186;29;20038;-91
2022/01/05 05:55:26;;;;;;;13.73;3.63;;;4.60;99.90;;;;;;4917091;29;20123;-92
2022/01/05 05:57:51;;;;;;;13.60;3.70;;;4.60;99.90;;;;;;4916410;29;20452;-92
2022/01/05 06:00:17;;;;;;;17.23;3.77;;;4.60;99.90;;;;;;4917339;29;20194;-92
2022/01/05 06:02:43;;;;;;;11.17;4.03;;;4.60;99.90;;;;;;4917419;29;20485;-91
2022/01/05 06:05:09;;;;;;;14.40;3.57;;;4.50;99.90;;;;;;4916817;29;20100;-92
2022/01/05 06:07:35;;;;;;;12.07;3.37;;;4.50;99.90;;;;;;4915916;29;20044;-91
2022/01/05 06:10:03;;;;;;;24.03;5.40;;;4.50;99.90;;;;;;4902045;29;20040;-91
2022/01/05 06:12:29;;;;;;;14.10;5.13;;;4.50;99.90;;;;;;4917678;29;20036;-91
2022/01/05 06:14:54;;;;;;;12.87;4.13;;;4.50;99.90;;;;;;4900752;29;20040;-91
2022/01/05 06:17:20;;;;;;;10.37;3.53;;;4.60;99.90;;;;;;4916481;29;20059;-91
2022/01/05 06:19:46;;;;;;;15.77;3.73;;;4.60;99.90;;;;;;4915727;29;20504;-91
2022/01/05 06:22:12;;;;;;;13.30;3.93;;;4.60;99.90;;;;;;4900791;29;20028;-91
2022/01/05 06:24:39;;;;;;;15.13;4.37;;;4.60;99.90;;;;;;4917734;29;20055;-91
2022/01/05 06:27:09;;;;;;;12.53;3.27;;;4.60;99.90;;;;;;4916059;29;20509;-91
2022/01/05 06:29:36;;;;;;;11.57;2.85;;;4.60;99.90;;;;;;4900059;29;20435;-91
2022/01/05 06:32:03;;;;;;;13.33;3.43;;;4.60;99.90;;;;;;4916165;29;20040;-91
2022/01/05 06:34:28;;;;;;;11.27;3.00;;;4.60;99.90;;;;;;4916107;29;20299;-91
2022/01/05 06:36:54;;;;;;;14.77;3.57;;;4.60;99.90;;;;;;4899522;29;20071;-91
2022/01/05 06:39:20;;;;;;;13.60;3.27;;;4.60;99.90;;;;;;4915522;29;20051;-91
2022/01/05 06:41:46;;;;;;;11.10;2.70;;;4.60;99.90;;;;;;4915909;29;20036;-91
2022/01/05 06:44:11;;;;;;;15.93;3.47;;;4.60;99.90;;;;;;4903500;29;20455;-91
2022/01/05 06:46:37;;;;;;;14.10;3.60;;;4.60;99.90;;;;;;4922989;29;20067;-91
2022/01/05 06:49:03;;;;;;;19.57;5.40;;;4.60;99.90;;;;;;4900848;29;20040;-91
2022/01/05 06:51:29;;;;;;;15.30;6.17;;;4.50;99.90;;;;;;4919904;29;20491;-91
2022/01/05 06:53:55;;;;;;;16.83;3.27;;;4.50;99.90;;;;;;4919566;29;20032;-90
2022/01/05 06:56:21;;;;;;;15.20;3.63;;;4.50;99.90;;;;;;4916378;29;20280;-91
2022/01/05 06:58:47;;;;;;;15.53;2.93;;;4.50;99.90;;;;;;4899475;29;20032;-91
2022/01/05 07:01:12;;;;;;;11.83;2.63;;;4.50;99.90;;;;;;4899954;29;20040;-90
2022/01/05 07:03:38;;;;;;;16.60;3.10;;;4.50;99.90;;;;;;4899817;29;20036;-91
2022/01/05 07:06:04;;;;;;;14.57;2.87;;;4.50;99.90;;;;;;4915451;29;20042;-91
2022/01/05 07:08:30;;;;;;;12.43;2.67;;;4.50;99.90;;;;;;4899450;29;20118;-91
2022/01/05 07:10:56;;;;;;;14.93;2.60;;;4.50;99.90;;;;;;4915165;29;20607;-91
2022/01/05 07:13:22;;;;;;;16.13;3.13;;;4.50;99.90;;;;;;4899758;29;20531;-91
2022/01/05 07:15:49;;;;;;;14.03;3.10;;;4.50;99.90;;;;;;4915456;29;20032;-91
2022/01/05 07:18:15;;;;;;;16.30;2.90;;;4.50;99.90;;;;;;4914856;29;20616;-91
2022/01/05 07:20:41;;;;;;;14.83;2.83;;;4.50;99.90;;;;;;4915315;29;20039;-91
2022/01/05 07:23:06;;;;;;;13.47;2.67;;;4.50;99.90;;;;;;4915363;29;20423;-91
2022/01/05 07:25:32;;;;;;;10.10;2.10;;;4.50;99.90;;;;;;4915397;29;20032;-91
2022/01/05 07:27:58;;;;;;;13.37;2.63;;;4.50;99.90;;;;;;4914497;29;20136;-91
2022/01/05 07:30:24;;;;;;;10.40;2.53;;;4.50;99.90;;;;;;4899256;29;20495;-91
2022/01/05 07:32:49;;;;;;;18.93;3.37;;;4.50;99.90;;;;;;4899396;29;20064;-91
2022/01/05 07:35:15;;;;;;;15.23;2.80;;;4.50;99.90;;;;;;4915006;29;20074;-91
2022/01/05 07:37:41;;;;;;;12.13;2.60;;;4.50;99.90;;;;;;4898889;29;20028;-91
2022/01/05 07:40:08;;;;;;;13.60;3.00;;;4.50;99.90;;;;;;4915067;29;20036;-91
2022/01/05 07:42:35;;;;;;;14.10;3.03;;;4.50;99.90;;;;;;4914940;29;20032;-91
2022/01/05 07:45:05;;;;;;;14.70;3.37;;;4.40;99.90;;;;;;4883538;29;20506;-91
2022/01/05 07:47:31;;;;;;;18.63;3.93;;;4.40;99.90;;;;;;4915727;29;20491;-91
2022/01/05 07:49:57;;;;;;;10.20;2.53;;;4.40;99.90;;;;;;4898947;29;20047;-91
2022/01/05 07:52:23;;;;;;;13.27;2.83;;;4.40;99.90;;;;;;4898973;29;20035;-92
2022/01/05 07:54:51;;;;;;;15.83;3.30;;;4.40;99.90;;;;;;4914948;29;20032;-91
2022/01/05 07:57:17;;;;;;;15.10;3.10;;;4.40;99.90;;;;;;4914659;29;20067;-91
2022/01/05 07:59:42;;;;;;;14.60;3.63;;;4.40;99.90;;;;;;4898617;29;20119;-91
2022/01/05 08:02:08;;;;;;;12.33;2.87;;;4.40;99.90;;;;;;4914518;29;20038;-91
2022/01/05 08:04:34;;;;;;;23.47;4.13;;;4.40;99.90;;;;;;4899089;29;20056;-91
2022/01/05 08:07:00;;;;;;;10.00;3.70;;;4.40;99.90;;;;;;4899004;29;20036;-91
2022/01/05 08:09:28;;;;;;;16.17;4.40;;;4.40;99.90;;;;;;4914193;29;20047;-91
2022/01/05 08:11:53;;;;;;;16.47;4.20;;;4.50;99.90;;;;;;4898679;29;20036;-91
2022/01/05 08:14:19;;;;;;;16.40;4.37;;;4.50;99.90;;;;;;4898890;29;20028;-91
2022/01/05 08:16:45;;;;;;;13.23;4.17;;;4.50;99.90;;;;;;4914492;29;20040;-91
2022/01/05 08:19:10;;;;;;;15.97;4.50;;;4.50;99.90;;;;;;4898376;29;20072;-91
2022/01/05 08:21:36;;;;;;;15.80;4.77;;;4.60;99.90;;;;;;4915856;29;20036;-91
2022/01/05 08:24:02;;;;;;;12.30;3.93;;;4.60;99.90;;;;;;4914722;29;20399;-91
2022/01/05 08:26:28;;;;;;;15.03;3.53;;;4.60;99.90;;;;;;4914454;29;20036;-91
2022/01/05 08:28:55;;;;;;;17.47;3.57;;;4.60;99.90;;;;;;4914477;29;20040;-91
2022/01/05 08:31:20;;;;;;;14.97;3.57;;;4.60;99.90;;;;;;4898462;29;20048;-91
2022/01/05 08:33:46;;;;;;;14.90;3.57;;;4.70;99.90;;;;;;4898880;29;20127;-91
2022/01/05 08:36:12;;;;;;;14.47;3.67;;;4.70;99.90;;;;;;4914534;29;20479;-91
2022/01/05 08:38:38;;;;;;;16.17;3.73;;;4.70;99.90;;;;;;4898666;29;20039;-92
2022/01/05 08:41:04;;;;;;;15.53;3.97;;;4.80;99.90;;;;;;4915511;29;20438;-91
2022/01/05 08:43:32;;;;;;;13.77;3.17;;;4.80;99.90;;;;;;4914313;29;20039;-91
2022/01/05 08:45:57;;;;;;;15.33;3.23;;;4.80;99.90;;;;;;4898564;29;20024;-91
2022/01/05 08:48:23;;;;;;;16.60;4.00;;;4.70;99.90;;;;;;4914026;29;20368;-91
2022/01/05 08:50:51;;;;;;;19.07;4.23;;;4.70;99.90;;;;;;4898330;29;20063;-91
2022/01/05 08:53:17;;;;;;;16.27;3.40;;;4.60;99.90;;;;;;4914317;29;20036;-91
2022/01/05 08:55:45;;;;;;;15.33;3.33;;;4.70;99.90;;;;;;4914252;29;20115;-91
2022/01/05 08:58:11;;;;;;;18.53;3.40;;;4.70;99.90;;;;;;4898241;29;20051;-91
2022/01/05 09:00:37;;;;;;;16.17;3.37;;;4.70;99.90;;;;;;4915354;29;20475;-91
2022/01/05 09:03:04;;;;;;;14.03;3.40;;;4.70;99.90;;;;;;4917677;29;20028;-91
2022/01/05 09:05:31;;;;;;;16.47;3.90;;;4.80;99.90;;;;;;4902263;29;20102;-91
2022/01/05 09:07:57;;;;;;;17.10;4.00;;;4.70;99.90;;;;;;4901492;29;20119;-91
2022/01/05 09:10:22;;;;;;;13.87;3.67;;;4.70;99.90;;;;;;4917844;29;20076;-92
2022/01/05 09:12:49;;;;;;;15.10;3.80;;;4.70;99.90;;;;;;4901911;29;20032;-91
2022/01/05 09:15:14;;;;;;;15.67;3.93;;;4.70;99.90;;;;;;4917476;29;20447;-91
2022/01/05 09:17:40;;;;;;;13.53;4.27;;;4.80;99.90;;;;;;4917154;29;20028;-91
2022/01/05 09:20:07;;;;;;;13.17;4.37;;;4.80;99.90;;;;;;4901852;29;20513;-91
2022/01/05 09:22:38;;;;;;;19.37;5.10;;;4.80;99.90;;;;;;4917515;29;20064;-91
2022/01/05 09:25:06;;;;;;;18.30;5.57;;;4.80;99.90;;;;;;4917401;29;20047;-91
2022/01/05 09:27:32;;;;;;;17.30;5.20;;;4.70;99.90;;;;;;4917020;29;20491;-91
2022/01/05 09:29:58;;;;;;;26.33;5.53;;;4.70;99.90;;;;;;4916959;29;20036;-91
2022/01/05 09:32:23;;;;;;;22.57;6.23;;;4.70;99.90;;;;;;4901442;29;20036;-91
2022/01/05 09:34:50;;;;;;;21.33;6.60;;;4.80;99.90;;;;;;4917387;29;20028;-91
2022/01/05 09:37:23;;;;;;;18.23;5.77;;;4.70;99.90;;;;;;4917044;29;20043;-92
2022/01/05 09:42:36;;;;;;;19.37;6.27;;;4.90;99.90;;;;;;4901220;29;20127;-91
2022/01/05 09:45:11;;;;;;;20.75;7.53;;;4.90;99.90;;;;;;4901315;29;20058;-92
2022/01/05 09:47:51;;;;;;;17.90;6.37;;;4.90;99.90;;;;;;4885215;29;20036;-91
2022/01/05 09:50:19;;;;;;;17.37;6.13;;;4.90;99.90;;;;;;4901189;29;20083;-91
2022/01/05 09:52:46;;;;;;;15.10;5.60;;;4.90;99.90;;;;;;4916642;29;20107;-91
2022/01/05 09:55:14;;;;;;;19.33;5.60;;;5.00;99.90;;;;;;4916803;29;20039;-91
2022/01/05 09:57:42;;;;;;;19.17;5.80;;;5.00;99.90;;;;;;4916238;29;20032;-91
2022/01/05 10:00:11;;;;;;;23.15;6.18;;;5.10;99.90;;;;;;4900993;29;20033;-91
2022/01/05 10:02:41;;;;;;;20.67;6.00;;;5.10;99.90;;;;;;4900991;29;20055;-91
2022/01/05 10:05:09;;;;;;;19.67;6.80;;;5.10;99.90;;;;;;4900964;29;20035;-91
2022/01/05 10:07:35;;;;;;;20.20;4.80;;;5.10;99.90;;;;;;4916077;29;20034;-91
2022/01/05 10:10:02;;;;;;;14.87;4.27;;;5.00;99.90;;;;;;4900756;29;20043;-91
2022/01/05 10:12:28;;;;;;;16.20;4.03;;;5.00;99.90;;;;;;4915507;29;20036;-91
2022/01/05 10:14:54;;;;;;;11.27;3.57;;;5.00;99.90;;;;;;4900778;29;20506;-91
2022/01/05 10:17:24;;;;;;;12.10;3.50;;;5.00;99.90;;;;;;4916393;29;20032;-91
2022/01/05 10:20:04;;;;;;;13.10;3.80;;;5.00;99.90;;;;;;4899951;29;20511;-91
2022/01/05 10:22:35;;;;;;;13.40;3.73;;;4.80;99.90;;;;;;4916594;29;20036;-91
2022/01/05 10:25:08;;;;;;;13.83;3.83;;;4.80;99.90;;;;;;4916456;29;20047;-91
2022/01/05 10:27:35;;;;;;;15.27;3.47;;;4.90;99.90;;;;;;4915843;29;20131;-91
2022/01/05 10:30:13;;;;;;;12.97;4.00;;;4.90;99.90;;;;;;4900502;29;20052;-91
2022/01/05 10:32:43;;;;;;;12.43;3.83;;;4.80;99.90;;;;;;4916197;29;20036;-91
2022/01/05 10:35:19;;;;;;;17.33;3.73;;;4.80;99.90;;;;;;4900434;29;20507;-91
2022/01/05 10:37:58;;;;;;;19.53;4.10;;;4.80;99.90;;;;;;4915618;29;20046;-91
2022/01/05 10:40:24;;;;;;;15.35;4.13;;;4.80;99.90;;;;;;4915943;29;20039;-91
2022/01/05 10:42:55;;;;;;;17.63;4.40;;;4.80;99.90;;;;;;4916070;29;20047;-91
2022/01/05 10:45:37;;;;;;;18.57;4.53;;;4.80;99.90;;;;;;4915970;29;20060;-91
2022/01/05 10:48:13;;;;;;;16.67;4.47;;;4.90;99.90;;;;;;4915597;29;20036;-91
2022/01/05 10:50:39;;;;;;;17.87;4.90;;;4.90;99.90;;;;;;4899886;29;20071;-91
2022/01/05 10:53:06;;;;;;;19.03;5.93;;;4.90;99.90;;;;;;4915601;29;20032;-91
2022/01/05 10:55:39;;;;;;;17.30;4.57;;;4.90;99.90;;;;;;4915794;29;20036;-91
2022/01/05 10:58:08;;;;;;;13.53;3.73;;;4.90;99.90;;;;;;4915243;29;20476;-91
2022/01/05 11:00:52;;;;;;;13.03;4.40;;;4.90;99.90;;;;;;4900017;29;20036;-91
2022/01/05 11:03:24;;;;;;;14.47;4.37;;;4.80;99.90;;;;;;4899958;29;20036;-91
2022/01/05 11:05:59;;;;;;;16.77;4.50;;;4.80;99.90;;;;;;4899956;29;20024;-91
2022/01/05 11:08:25;;;;;;;13.10;4.13;;;4.80;99.90;;;;;;4899420;29;20036;-91
2022/01/05 11:10:50;;;;;;;15.20;4.47;;;4.80;99.90;;;;;;4916521;29;20430;-91
2022/01/05 11:13:16;;;;;;;13.23;4.67;;;4.90;99.90;;;;;;4915368;29;20043;-91
2022/01/05 11:15:42;;;;;;;13.37;3.97;;;4.90;99.90;;;;;;4899728;29;20060;-91
2022/01/05 11:18:09;;;;;;;17.70;3.50;;;5.00;99.90;;;;;;4914836;29;20462;-91
2022/01/05 11:20:40;;;;;;;16.67;3.83;;;5.00;99.90;;;;;;4883624;29;20083;-91
2022/01/05 11:23:06;;;;;;;11.40;3.30;;;5.00;99.90;;;;;;4883905;29;20396;-91
2022/01/05 11:25:36;;;;;;;11.17;3.37;;;5.00;99.90;;;;;;4915446;29;20479;-91
2022/01/05 11:28:02;;;;;;;;;;;5.00;99.90;;;;;;4900164;29;20032;-91
2022/01/05 11:30:29;;;;;;;13.63;2.93;;;5.00;99.90;;;;;;4915169;29;19911;-91
2022/01/05 11:32:55;;;;;;;12.80;2.97;;;4.90;99.90;;;;;;4915326;29;20039;-91
2022/01/05 11:35:21;;;;;;;12.13;3.70;;;5.00;99.90;;;;;;4899672;29;20040;-91
2022/01/05 11:37:47;;;;;;;11.87;3.33;;;5.00;99.90;;;;;;4914647;29;20028;-91
2022/01/05 11:40:13;;;;;;;18.20;3.70;;;5.10;99.90;;;;;;4899299;29;20036;-91
2022/01/05 11:42:40;;;;;;;17.23;3.50;;;5.10;99.90;;;;;;4914879;29;20100;-91
2022/01/05 11:45:08;;;;;;;12.03;3.10;;;5.10;99.90;;;;;;4899129;29;20047;-91
2022/01/05 11:47:39;;;;;;;18.10;3.90;;;5.20;99.90;;;;;;4914636;29;20068;-91
2022/01/05 11:50:14;;;;;;;12.30;3.03;;;5.10;99.90;;;;;;4899402;29;20389;-91
2022/01/05 11:52:53;;;;;;;17.10;3.70;;;5.10;99.90;;;;;;4883533;29;20558;-91
2022/01/05 11:55:18;;;;;;;15.70;3.20;;;5.10;99.90;;;;;;4899230;29;20020;-91
2022/01/05 11:58:16;;;;;;;16.13;3.33;;;5.20;99.90;;;;;;4898579;29;20089;-91
2022/01/05 12:00:44;;;;;;;17.60;3.50;;;5.20;99.90;;;;;;4899292;29;20403;-91
2022/01/05 12:03:09;;;;;;;18.77;4.27;;;5.20;99.90;;;;;;4898963;29;20040;-91
2022/01/05 12:06:04;;;;;;;15.17;3.13;;;5.20;99.90;;;;;;4899205;29;20040;-91
2022/01/05 12:08:44;;;;;;;16.77;2.93;;;5.30;99.90;;;;;;4883373;29;20028;-91
2022/01/05 12:11:33;;;;;;;17.17;2.73;;;5.30;99.90;;;;;;4898961;29;20036;-92
2022/01/05 12:14:19;;;;;;;14.15;3.35;;;5.40;99.90;;;;;;4899662;29;20028;-91
2022/01/05 12:17:06;;;;;;;19.37;3.97;;;5.40;99.90;;;;;;4899331;29;20036;-91
2022/01/05 12:19:34;;;;;;;14.40;3.47;;;5.40;99.90;;;;;;4883585;29;20039;-92
2022/01/05 12:22:23;;;;;;;12.80;3.13;;;5.40;99.90;;;;;;4898898;29;20039;-91
2022/01/05 12:25:04;;;;;;;12.32;3.00;;;5.40;99.90;;;;;;4899001;29;20032;-91
2022/01/05 12:27:49;;;;;;;17.73;3.50;;;5.30;99.90;;;;;;4898600;29;20040;-91
2022/01/05 12:30:19;;;;;;;16.83;3.60;;;5.40;99.90;;;;;;4883437;29;20047;-91
2022/01/05 12:32:46;;;;;;;16.10;3.55;;;5.40;99.90;;;;;;4883290;29;20127;-91
2022/01/05 12:35:15;;;;;;;12.83;3.63;;;5.40;99.90;;;;;;4915311;29;20109;-91
2022/01/05 12:37:46;;;;;;;16.02;3.28;;;5.40;99.90;;;;;;4902339;29;20047;-91
2022/01/05 12:40:21;;;;;;;13.93;3.07;;;5.50;99.90;;;;;;4902824;29;20035;-91
2022/01/05 12:42:47;;;;;;;9.10;2.27;;;5.60;99.90;;;;;;4886807;29;20036;-91
2022/01/05 12:45:51;;;;;;;16.73;3.30;;;5.60;99.90;;;;;;4918243;29;20028;-91
2022/01/05 12:48:32;;;;;;;14.97;2.80;;;5.60;99.90;;;;;;4901942;29;20040;-91
2022/01/05 12:51:22;;;;;;;13.80;3.30;;;5.50;99.90;;;;;;4902208;29;20032;-91
2022/01/05 12:54:09;;;;;;;18.10;3.27;;;5.60;99.90;;;;;;4902332;29;20055;-91
2022/01/05 12:56:39;;;;;;;13.40;2.67;;;5.60;99.90;;;;;;4918098;29;20044;-91
2022/01/05 12:59:08;;;;;;;15.10;3.07;;;5.60;99.90;;;;;;4901697;29;20208;-91
2022/01/05 13:01:34;;;;;;;16.53;3.33;;;5.50;99.90;;;;;;4917710;29;20032;-91